createdAt,value
2017-06-12T00:01:04.926Z,19.5
2017-06-12T00:02:23.645Z,19.5
2017-06-12T00:03:42.403Z,19.5
2017-06-12T00:05:01.120Z,19.4
2017-06-12T00:06:19.836Z,19.4
2017-06-12T00:07:38.584Z,19.4
2017-06-12T00:08:57.327Z,19.4
2017-06-12T00:10:15.998Z,19.4
2017-06-12T00:11:34.713Z,19.4
2017-06-12T00:12:53.378Z,19.4
2017-06-12T00:14:12.063Z,19.3
2017-06-12T00:15:30.729Z,19.2
2017-06-12T00:16:49.409Z,19.1
2017-06-12T00:18:08.106Z,19
2017-06-12T00:19:26.825Z,19
2017-06-12T00:20:45.527Z,19
2017-06-12T00:22:04.231Z,19
2017-06-12T00:23:22.947Z,18.9
2017-06-12T00:24:41.623Z,18.9
2017-06-12T00:26:00.340Z,18.8
2017-06-12T00:27:19.099Z,18.8
2017-06-12T00:28:37.775Z,18.9
2017-06-12T00:29:56.478Z,18.9
2017-06-12T00:31:15.150Z,18.8
2017-06-12T00:32:33.833Z,18.8
2017-06-12T00:33:52.554Z,18.7
2017-06-12T00:35:11.291Z,18.7
2017-06-12T00:36:29.984Z,18.6
2017-06-12T00:37:48.680Z,18.5
2017-06-12T00:39:07.407Z,18.6
2017-06-12T00:40:26.155Z,18.7
2017-06-12T00:41:44.827Z,18.7
2017-06-12T00:43:03.500Z,18.7
2017-06-12T00:44:22.167Z,18.6
2017-06-12T00:45:40.856Z,18.6
2017-06-12T00:46:59.570Z,18.5
2017-06-12T00:48:18.233Z,18.5
2017-06-12T00:49:36.902Z,18.5
2017-06-12T00:50:55.612Z,18.5
2017-06-12T00:52:14.296Z,18.5
2017-06-12T00:53:33.015Z,18.5
2017-06-12T00:54:51.715Z,18.4
2017-06-12T00:56:10.433Z,18.4
2017-06-12T00:57:29.151Z,18.4
2017-06-12T00:58:47.818Z,18.4
2017-06-12T01:00:06.491Z,18.4
2017-06-12T01:01:25.168Z,18.4
2017-06-12T01:02:43.905Z,18.4
2017-06-12T01:04:02.626Z,18.3
2017-06-12T01:05:21.349Z,18.3
2017-06-12T01:06:40.046Z,18.2
2017-06-12T01:07:58.742Z,18.2
2017-06-12T01:09:17.435Z,18.2
2017-06-12T01:10:36.175Z,18.1
2017-06-12T01:11:54.853Z,18.1
2017-06-12T01:13:13.559Z,18.1
2017-06-12T01:14:32.234Z,18.1
2017-06-12T01:15:50.897Z,18
2017-06-12T01:17:09.649Z,18
2017-06-12T01:18:28.336Z,18
2017-06-12T01:19:47.022Z,18
2017-06-12T01:21:05.691Z,18
2017-06-12T01:22:24.375Z,18.1
2017-06-12T01:23:43.105Z,18.1
2017-06-12T01:25:01.770Z,18.1
2017-06-12T01:26:20.447Z,18.1
2017-06-12T01:27:39.204Z,18.2
2017-06-12T01:28:57.927Z,18.3
2017-06-12T01:30:16.592Z,18.2
2017-06-12T01:31:35.321Z,18.2
2017-06-12T01:32:54.030Z,18.2
2017-06-12T01:34:12.754Z,18.2
2017-06-12T01:35:31.442Z,18.3
2017-06-12T01:36:50.107Z,18.3
2017-06-12T01:38:08.790Z,18.2
2017-06-12T01:39:27.504Z,18.1
2017-06-12T01:40:46.207Z,18
2017-06-12T01:42:04.911Z,18
2017-06-12T01:43:23.607Z,18
2017-06-12T01:44:42.332Z,17.9
2017-06-12T01:46:01.001Z,17.9
2017-06-12T01:47:19.698Z,17.9
2017-06-12T01:48:38.374Z,17.9
2017-06-12T01:49:57.039Z,17.9
2017-06-12T01:51:15.697Z,17.9
2017-06-12T01:52:34.362Z,17.8
2017-06-12T01:53:53.081Z,17.9
2017-06-12T01:55:11.756Z,18
2017-06-12T01:56:30.423Z,18
2017-06-12T01:57:49.134Z,18
2017-06-12T01:59:07.840Z,18.1
2017-06-12T02:00:26.563Z,18
2017-06-12T02:01:45.268Z,18.1
2017-06-12T02:03:03.957Z,18.1
2017-06-12T02:04:22.656Z,18.1
2017-06-12T02:05:41.378Z,18.1
2017-06-12T02:07:00.054Z,18.1
2017-06-12T02:08:18.786Z,18.1
2017-06-12T02:09:37.481Z,18.1
2017-06-12T02:10:56.150Z,18.2
2017-06-12T02:12:14.874Z,18.2
2017-06-12T02:13:33.569Z,18.2
2017-06-12T02:14:52.269Z,18.3
2017-06-12T02:16:10.942Z,18.3
2017-06-12T02:17:29.609Z,18.3
2017-06-12T02:18:48.327Z,18.3
2017-06-12T02:20:07.006Z,18.3
2017-06-12T02:21:25.694Z,18.3
2017-06-12T02:22:44.362Z,18.3
2017-06-12T02:24:03.025Z,18.3
2017-06-12T02:25:21.709Z,18.2
2017-06-12T02:26:40.433Z,18.2
2017-06-12T02:27:59.125Z,18.2
2017-06-12T02:29:17.857Z,18.2
2017-06-12T02:30:36.602Z,18.2
2017-06-12T02:31:55.324Z,18.2
2017-06-12T02:33:14.045Z,18.2
2017-06-12T02:34:32.759Z,18.2
2017-06-12T02:35:51.468Z,18.2
2017-06-12T02:37:10.190Z,18.2
2017-06-12T02:38:28.893Z,18.2
2017-06-12T02:39:47.595Z,18.2
2017-06-12T02:41:06.328Z,18.2
2017-06-12T02:42:24.990Z,18.2
2017-06-12T02:43:43.658Z,18.2
2017-06-12T02:45:02.412Z,18.2
2017-06-12T02:46:21.087Z,18.2
2017-06-12T02:47:39.764Z,18.2
2017-06-12T02:48:58.429Z,18.2
2017-06-12T02:50:17.111Z,18.2
2017-06-12T02:51:35.801Z,18.2
2017-06-12T02:52:54.473Z,18.2
2017-06-12T02:54:13.192Z,18.2
2017-06-12T02:55:31.863Z,18.2
2017-06-12T02:56:50.583Z,18.2
2017-06-12T02:58:09.304Z,18.1
2017-06-12T02:59:27.969Z,18.1
2017-06-12T03:00:46.639Z,18.1
2017-06-12T03:02:05.373Z,18
2017-06-12T03:03:24.070Z,18
2017-06-12T03:04:42.733Z,17.9
2017-06-12T03:06:01.441Z,17.9
2017-06-12T03:07:20.137Z,17.8
2017-06-12T03:08:38.824Z,17.7
2017-06-12T03:09:57.494Z,17.6
2017-06-12T03:11:16.205Z,17.6
2017-06-12T03:12:34.878Z,17.7
2017-06-12T03:13:53.600Z,17.7
2017-06-12T03:15:12.338Z,17.7
2017-06-12T03:16:31.038Z,17.7
2017-06-12T03:17:49.722Z,17.7
2017-06-12T03:19:08.397Z,17.7
2017-06-12T03:20:27.065Z,17.7
2017-06-12T03:21:45.793Z,17.7
2017-06-12T03:23:04.485Z,17.6
2017-06-12T03:24:23.151Z,17.6
2017-06-12T03:25:41.828Z,17.6
2017-06-12T03:27:00.488Z,17.7
2017-06-12T03:28:19.180Z,17.8
2017-06-12T03:29:37.864Z,17.9
2017-06-12T03:30:56.554Z,17.8
2017-06-12T03:32:15.296Z,17.7
2017-06-12T03:33:34.007Z,17.6
2017-06-12T03:34:52.668Z,17.7
2017-06-12T03:36:11.386Z,17.7
2017-06-12T03:37:30.068Z,17.7
2017-06-12T03:38:48.800Z,17.7
2017-06-12T03:40:07.468Z,17.7
2017-06-12T03:41:26.164Z,17.7
2017-06-12T03:42:44.830Z,17.7
2017-06-12T03:44:03.527Z,17.8
2017-06-12T03:45:22.190Z,17.9
2017-06-12T03:46:40.854Z,18
2017-06-12T03:47:59.588Z,18.1
2017-06-12T03:49:18.262Z,18.2
2017-06-12T03:50:36.925Z,18.2
2017-06-12T03:51:55.633Z,18.3
2017-06-12T03:53:14.307Z,18.3
2017-06-12T03:54:33.005Z,18.4
2017-06-12T03:55:51.713Z,18.4
2017-06-12T03:57:10.379Z,18.4
2017-06-12T03:58:29.129Z,18.4
2017-06-12T03:59:47.832Z,18.4
2017-06-12T04:01:06.530Z,18.4
2017-06-12T04:02:25.201Z,18.4
2017-06-12T04:03:43.954Z,18.4
2017-06-12T04:05:02.690Z,18.4
2017-06-12T04:06:21.389Z,18.4
2017-06-12T04:07:40.051Z,18.5
2017-06-12T04:08:58.716Z,18.5
2017-06-12T04:10:17.471Z,18.7
2017-06-12T04:11:36.147Z,18.8
2017-06-12T04:12:54.814Z,18.8
2017-06-12T04:14:13.475Z,18.7
2017-06-12T04:15:32.150Z,18.7
2017-06-12T04:16:50.874Z,18.8
2017-06-12T04:18:09.561Z,18.8
2017-06-12T04:19:28.283Z,18.8
2017-06-12T04:20:46.951Z,18.9
2017-06-12T04:22:05.623Z,18.8
2017-06-12T04:23:24.337Z,18.8
2017-06-12T04:24:42.998Z,18.7
2017-06-12T04:26:01.687Z,18.7
2017-06-12T04:27:20.354Z,18.6
2017-06-12T04:28:39.056Z,18.5
2017-06-12T04:29:57.724Z,18.5
2017-06-12T04:31:16.425Z,18.5
2017-06-12T04:32:35.095Z,18.6
2017-06-12T04:33:53.777Z,18.7
2017-06-12T04:35:12.463Z,18.8
2017-06-12T04:36:31.169Z,19
2017-06-12T04:37:49.859Z,19.1
2017-06-12T04:39:08.554Z,19.2
2017-06-12T04:40:27.273Z,19.3
2017-06-12T04:41:45.975Z,19.3
2017-06-12T04:43:04.649Z,19.3
2017-06-12T04:44:23.322Z,19.2
2017-06-12T04:45:41.990Z,19.2
2017-06-12T04:47:00.692Z,19.1
2017-06-12T04:48:19.362Z,19.1
2017-06-12T04:49:38.030Z,19.1
2017-06-12T04:50:56.715Z,19.3
2017-06-12T04:52:15.409Z,19.3
2017-06-12T04:53:34.138Z,19.4
2017-06-12T04:54:52.854Z,19.4
2017-06-12T04:56:11.554Z,19.4
2017-06-12T04:57:30.234Z,19.3
2017-06-12T04:58:48.972Z,19.3
2017-06-12T05:00:07.656Z,19.2
2017-06-12T05:01:26.335Z,19
2017-06-12T05:02:45.040Z,18.9
2017-06-12T05:04:03.716Z,18.8
2017-06-12T05:05:22.460Z,18.7
2017-06-12T05:06:41.153Z,18.7
2017-06-12T05:07:59.836Z,18.6
2017-06-12T05:09:18.556Z,18.8
2017-06-12T05:10:37.231Z,19.1
2017-06-12T05:11:55.900Z,19.5
2017-06-12T05:13:14.577Z,19.9
2017-06-12T05:14:33.294Z,20.2
2017-06-12T05:15:51.965Z,20.3
2017-06-12T05:17:10.636Z,20.3
2017-06-12T05:18:29.315Z,20
2017-06-12T05:19:48.031Z,19.8
2017-06-12T05:21:06.698Z,19.6
2017-06-12T05:22:25.396Z,19.4
2017-06-12T05:23:44.098Z,19.5
2017-06-12T05:25:02.823Z,19.7
2017-06-12T05:26:21.491Z,20
2017-06-12T05:27:40.178Z,20.3
2017-06-12T05:28:58.895Z,20.5
2017-06-12T05:30:17.559Z,20.6
2017-06-12T05:31:36.233Z,20.7
2017-06-12T05:32:54.907Z,20.9
2017-06-12T05:34:13.608Z,21.2
2017-06-12T05:35:32.331Z,21.4
2017-06-12T05:36:51.049Z,21.6
2017-06-12T05:38:09.777Z,21.5
2017-06-12T05:39:28.479Z,21.5
2017-06-12T05:40:47.146Z,21.5
2017-06-12T05:42:05.807Z,21.5
2017-06-12T05:43:24.478Z,21.5
2017-06-12T05:44:43.171Z,21.6
2017-06-12T05:46:01.880Z,21.6
2017-06-12T05:47:20.565Z,21.7
2017-06-12T05:48:39.284Z,21.7
2017-06-12T05:49:57.965Z,21.7
2017-06-12T05:51:16.688Z,21.7
2017-06-12T05:52:35.399Z,21.8
2017-06-12T05:53:54.120Z,21.8
2017-06-12T05:55:12.794Z,21.7
2017-06-12T05:56:31.460Z,21.6
2017-06-12T05:57:50.128Z,21.3
2017-06-12T05:59:08.806Z,21
2017-06-12T06:00:27.538Z,20.8
2017-06-12T06:01:46.234Z,20.8
2017-06-12T06:03:04.900Z,20.8
2017-06-12T06:04:23.572Z,20.8
2017-06-12T06:05:42.248Z,20.8
2017-06-12T06:07:00.909Z,21.1
2017-06-12T06:08:19.583Z,21.3
2017-06-12T06:09:38.497Z,21.3
2017-06-12T06:10:57.180Z,21.2
2017-06-12T06:12:15.898Z,21
2017-06-12T06:13:34.622Z,20.9
2017-06-12T06:14:53.307Z,21
2017-06-12T06:16:12.006Z,21.3
2017-06-12T06:17:30.681Z,21.7
2017-06-12T06:18:49.347Z,21.9
2017-06-12T06:20:08.013Z,22
2017-06-12T06:21:26.758Z,22.1
2017-06-12T06:22:45.427Z,22
2017-06-12T06:24:04.129Z,21.8
2017-06-12T06:25:22.852Z,22
2017-06-12T06:26:41.597Z,22.2
2017-06-12T06:28:00.318Z,22.6
2017-06-12T06:29:19.066Z,23
2017-06-12T06:30:37.735Z,23.4
2017-06-12T06:31:56.461Z,23.5
2017-06-12T06:33:15.128Z,23.4
2017-06-12T06:34:33.810Z,23.4
2017-06-12T06:35:52.479Z,23.3
2017-06-12T06:37:11.177Z,23.3
2017-06-12T06:38:29.869Z,23.1
2017-06-12T06:39:48.559Z,23.1
2017-06-12T06:41:07.227Z,22.9
2017-06-12T06:42:25.920Z,22.6
2017-06-12T06:43:44.588Z,22.2
2017-06-12T06:45:03.259Z,22
2017-06-12T06:46:21.982Z,21.8
2017-06-12T06:47:40.659Z,21.7
2017-06-12T06:48:59.322Z,21.7
2017-06-12T06:50:17.988Z,21.8
2017-06-12T06:51:36.651Z,21.7
2017-06-12T06:52:55.401Z,21.7
2017-06-12T06:54:14.106Z,21.6
2017-06-12T06:55:32.810Z,21.5
2017-06-12T06:56:51.549Z,21.5
2017-06-12T06:58:10.271Z,21.7
2017-06-12T06:59:28.967Z,21.8
2017-06-12T07:00:47.632Z,21.8
2017-06-12T07:02:06.347Z,21.9
2017-06-12T07:03:25.051Z,22
2017-06-12T07:04:43.720Z,22.1
2017-06-12T07:06:02.416Z,22.2
2017-06-12T07:07:21.083Z,22.3
2017-06-12T07:08:39.783Z,22.2
2017-06-12T07:09:58.486Z,22.1
2017-06-12T07:11:17.156Z,22.1
2017-06-12T07:12:35.824Z,22.3
2017-06-12T07:13:54.525Z,22.6
2017-06-12T07:15:13.200Z,22.8
2017-06-12T07:16:31.919Z,22.8
2017-06-12T07:17:50.628Z,22.9
2017-06-12T07:19:09.333Z,23.1
2017-06-12T07:20:28.010Z,23.2
2017-06-12T07:21:46.723Z,23.4
2017-06-12T07:23:05.385Z,23.6
2017-06-12T07:24:24.102Z,24
2017-06-12T07:25:42.774Z,24.1
2017-06-12T07:27:01.440Z,24.5
2017-06-12T07:28:20.126Z,24.7
2017-06-12T07:29:38.816Z,24.4
2017-06-12T07:30:57.524Z,24.2
2017-06-12T07:32:16.200Z,24.1
2017-06-12T07:33:34.864Z,24
2017-06-12T07:34:53.603Z,23.9
2017-06-12T07:36:12.325Z,23.9
2017-06-12T07:37:30.994Z,23.9
2017-06-12T07:38:49.668Z,24.1
2017-06-12T07:40:08.364Z,24.4
2017-06-12T07:41:27.032Z,24.3
2017-06-12T07:42:45.731Z,24.2
2017-06-12T07:44:04.402Z,24
2017-06-12T07:45:23.092Z,23.8
2017-06-12T07:46:41.762Z,24
2017-06-12T07:48:00.429Z,24.1
2017-06-12T07:49:19.155Z,24
2017-06-12T07:50:37.850Z,23.8
2017-06-12T07:51:56.571Z,23.7
2017-06-12T07:53:15.265Z,23.5
2017-06-12T07:54:33.957Z,23.1
2017-06-12T07:55:52.637Z,23
2017-06-12T07:57:11.340Z,23
2017-06-12T07:58:30.007Z,23.2
2017-06-12T07:59:48.738Z,23.2
2017-06-12T08:01:07.433Z,23.2
2017-06-12T08:02:26.104Z,22.9
2017-06-12T08:03:44.780Z,22.6
2017-06-12T08:05:03.454Z,22.5
2017-06-12T08:06:22.162Z,23
2017-06-12T08:07:40.832Z,23.4
2017-06-12T08:08:59.525Z,23.6
2017-06-12T08:10:18.194Z,23.7
2017-06-12T08:11:36.863Z,23.8
2017-06-12T08:12:55.561Z,24
2017-06-12T08:14:14.231Z,24.2
2017-06-12T08:15:32.953Z,24
2017-06-12T08:16:51.712Z,23.8
2017-06-12T08:18:10.404Z,23.4
2017-06-12T08:19:29.101Z,23.3
2017-06-12T08:20:47.807Z,23.2
2017-06-12T08:22:06.505Z,23.3
2017-06-12T08:23:25.211Z,23.2
2017-06-12T08:24:43.907Z,23.4
2017-06-12T08:26:02.628Z,23.7
2017-06-12T08:27:21.316Z,24
2017-06-12T08:28:39.979Z,24.1
2017-06-12T08:29:58.641Z,24.3
2017-06-12T08:31:17.398Z,24.5
2017-06-12T08:32:36.103Z,24.1
2017-06-12T08:33:54.776Z,23.8
2017-06-12T08:35:13.445Z,23.8
2017-06-12T08:36:32.108Z,24
2017-06-12T08:37:50.803Z,23.9
2017-06-12T08:39:09.508Z,23.9
2017-06-12T08:40:28.198Z,23.9
2017-06-12T08:41:46.897Z,23.8
2017-06-12T08:43:05.591Z,24
2017-06-12T08:44:24.267Z,24.1
2017-06-12T08:45:42.967Z,24.1
2017-06-12T08:47:01.636Z,24.5
2017-06-12T08:48:20.366Z,25.2
2017-06-12T08:49:39.065Z,25.1
2017-06-12T08:50:57.802Z,25.2
2017-06-12T08:52:16.478Z,25
2017-06-12T08:53:35.189Z,24.5
2017-06-12T08:54:53.896Z,24.4
2017-06-12T08:56:12.620Z,24
2017-06-12T08:57:31.289Z,24.2
2017-06-12T08:58:49.964Z,24.5
2017-06-12T09:00:08.627Z,24.4
2017-06-12T09:01:27.347Z,24.8
2017-06-12T09:02:46.037Z,24.3
2017-06-12T09:04:04.744Z,24
2017-06-12T09:05:23.417Z,23.8
2017-06-12T09:06:42.091Z,23.9
2017-06-12T09:08:00.757Z,24
2017-06-12T09:09:19.431Z,23.6
2017-06-12T09:10:38.099Z,23.6
2017-06-12T09:11:56.791Z,23.8
2017-06-12T09:13:15.500Z,23.6
2017-06-12T09:14:34.214Z,23.2
2017-06-12T09:15:52.882Z,22.9
2017-06-12T09:17:11.562Z,22.7
2017-06-12T09:18:30.259Z,22.7
2017-06-12T09:19:48.975Z,22.6
2017-06-12T09:21:07.685Z,22.7
2017-06-12T09:22:26.405Z,22.8
2017-06-12T09:23:45.077Z,22.7
2017-06-12T09:25:03.816Z,22.8
2017-06-12T09:26:22.486Z,22.7
2017-06-12T09:27:41.150Z,22.8
2017-06-12T09:28:59.867Z,22.6
2017-06-12T09:30:18.590Z,22.5
2017-06-12T09:31:37.315Z,22.4
2017-06-12T09:32:55.984Z,22.4
2017-06-12T09:34:14.706Z,22.4
2017-06-12T09:35:33.404Z,22.5
2017-06-12T09:36:52.092Z,22.6
2017-06-12T09:38:10.757Z,22.5
2017-06-12T09:39:29.428Z,22.4
2017-06-12T09:40:48.105Z,22.5
2017-06-12T09:42:06.777Z,22.4
2017-06-12T09:43:25.441Z,22.3
2017-06-12T09:44:44.139Z,22.2
2017-06-12T09:46:02.832Z,22.1
2017-06-12T09:47:21.557Z,22.3
2017-06-12T09:48:40.224Z,22.7
2017-06-12T09:49:58.994Z,23
2017-06-12T09:51:17.685Z,23
2017-06-12T09:52:36.411Z,23
2017-06-12T09:53:55.079Z,22.9
2017-06-12T09:55:13.760Z,22.9
2017-06-12T09:56:32.452Z,22.8
2017-06-12T09:57:51.128Z,22.9
2017-06-12T09:59:09.807Z,23
2017-06-12T10:00:28.478Z,22.9
2017-06-12T10:01:47.218Z,22.7
2017-06-12T10:03:05.890Z,22.4
2017-06-12T10:04:24.569Z,22.3
2017-06-12T10:05:43.242Z,22.4
2017-06-12T10:07:01.946Z,22.4
2017-06-12T10:08:20.618Z,22.3
2017-06-12T10:09:39.340Z,22.3
2017-06-12T10:10:58.014Z,22.2
2017-06-12T10:12:16.700Z,22.2
2017-06-12T10:13:35.410Z,22.1
2017-06-12T10:14:54.101Z,22.1
2017-06-12T10:16:12.806Z,22.2
2017-06-12T10:17:31.515Z,22.2
2017-06-12T10:18:50.233Z,22.4
2017-06-12T10:20:08.921Z,22.3
2017-06-12T10:21:27.608Z,22.3
2017-06-12T10:22:46.288Z,22.1
2017-06-12T10:24:04.953Z,22
2017-06-12T10:25:23.673Z,22
2017-06-12T10:26:42.401Z,22.2
2017-06-12T10:28:01.115Z,22.4
2017-06-12T10:29:19.804Z,22.6
2017-06-12T10:30:38.470Z,22.5
2017-06-12T10:31:57.185Z,22.5
2017-06-12T10:33:15.907Z,22.3
2017-06-12T10:34:34.577Z,22.3
2017-06-12T10:35:53.300Z,22.2
2017-06-12T10:37:11.977Z,22.2
2017-06-12T10:38:30.700Z,22.2
2017-06-12T10:39:49.423Z,22.2
2017-06-12T10:41:08.145Z,22.3
2017-06-12T10:42:26.822Z,22.3
2017-06-12T10:43:45.521Z,22.3
2017-06-12T10:45:04.192Z,22.4
2017-06-12T10:46:22.918Z,22.5
2017-06-12T10:47:41.581Z,22.5
2017-06-12T10:49:00.286Z,22.5
2017-06-12T10:50:18.984Z,22.5
2017-06-12T10:51:37.648Z,22.4
2017-06-12T10:52:56.356Z,22.2
2017-06-12T10:54:15.056Z,22.3
2017-06-12T10:55:33.727Z,22.3
2017-06-12T10:56:52.463Z,22.1
2017-06-12T10:58:11.137Z,22.2
2017-06-12T10:59:29.860Z,22.2
2017-06-12T11:00:48.560Z,22.3
2017-06-12T11:02:07.263Z,22.4
2017-06-12T11:03:25.935Z,22.3
2017-06-12T11:04:44.627Z,22.2
2017-06-12T11:06:03.294Z,22.3
2017-06-12T11:07:21.963Z,22.4
2017-06-12T11:08:40.652Z,22.3
2017-06-12T11:09:59.338Z,22.4
2017-06-12T11:11:18.040Z,22.3
2017-06-12T11:12:36.712Z,22.2
2017-06-12T11:13:55.387Z,22.1
2017-06-12T11:15:14.115Z,22.1
2017-06-12T11:16:32.814Z,22.1
2017-06-12T11:17:51.483Z,22.1
2017-06-12T11:19:10.150Z,22.2
2017-06-12T11:20:28.839Z,22.3
2017-06-12T11:21:47.561Z,22.4
2017-06-12T11:23:06.283Z,22.6
2017-06-12T11:24:24.974Z,22.8
2017-06-12T11:25:43.669Z,23
2017-06-12T11:27:02.411Z,22.9
2017-06-12T11:28:21.108Z,22.9
2017-06-12T11:29:39.774Z,22.7
2017-06-12T11:30:58.450Z,22.5
2017-06-12T11:32:17.113Z,22.5
2017-06-12T11:33:35.782Z,22.8
2017-06-12T11:34:54.467Z,22.8
2017-06-12T11:36:13.162Z,22.8
2017-06-12T11:37:31.828Z,22.7
2017-06-12T11:38:50.494Z,22.7
2017-06-12T11:40:09.179Z,22.7
2017-06-12T11:41:27.864Z,22.6
2017-06-12T11:42:46.567Z,22.6
2017-06-12T11:44:05.228Z,22.6
2017-06-12T11:45:23.920Z,22.4
2017-06-12T11:46:42.660Z,22.2
2017-06-12T11:48:01.364Z,22.2
2017-06-12T11:49:20.037Z,22.4
2017-06-12T11:50:38.772Z,22.7
2017-06-12T11:51:57.452Z,23.1
2017-06-12T11:53:16.165Z,24
2017-06-12T11:54:34.847Z,24.7
2017-06-12T11:55:53.585Z,26.1
2017-06-12T11:57:12.323Z,29.3
2017-06-12T11:58:31.044Z,34.2
2017-06-12T11:59:49.743Z,34.8
2017-06-12T12:01:08.403Z,35.2
2017-06-12T12:02:27.079Z,35.3
2017-06-12T12:03:45.754Z,35.6
2017-06-12T12:05:04.417Z,35.6
2017-06-12T12:06:23.086Z,35.7
2017-06-12T12:07:41.783Z,35.7
2017-06-12T12:09:00.451Z,35.9
2017-06-12T12:10:19.166Z,35.9
2017-06-12T12:11:37.868Z,35.7
2017-06-12T12:12:56.589Z,35.6
2017-06-12T12:14:15.312Z,35.7
2017-06-12T12:15:34.012Z,35.8
2017-06-12T12:16:52.712Z,35.8
2017-06-12T12:18:11.439Z,35.8
2017-06-12T12:19:30.111Z,35.8
2017-06-12T12:20:48.786Z,36
2017-06-12T12:22:07.450Z,36.2
2017-06-12T12:23:26.139Z,36.3
2017-06-12T12:24:44.808Z,36.5
2017-06-12T12:26:03.480Z,36.6
2017-06-12T12:27:22.181Z,36.6
2017-06-12T12:28:40.877Z,36.6
2017-06-12T12:29:59.561Z,36.6
2017-06-12T12:31:18.224Z,36.7
2017-06-12T12:32:36.892Z,36.8
2017-06-12T12:33:55.606Z,36.7
2017-06-12T12:35:14.324Z,36.7
2017-06-12T12:36:32.986Z,36.6
2017-06-12T12:37:51.652Z,36.6
2017-06-12T12:39:10.345Z,36.8
2017-06-12T12:40:29.044Z,36.7
2017-06-12T12:41:47.767Z,36.6
2017-06-12T12:43:06.504Z,36.5
2017-06-12T12:44:25.175Z,36.4
2017-06-12T12:45:43.899Z,36.5
2017-06-12T12:47:02.566Z,36.7
2017-06-12T12:48:21.245Z,36.7
2017-06-12T12:49:39.954Z,36.8
2017-06-12T12:50:58.671Z,36.7
2017-06-12T12:52:17.389Z,36.5
2017-06-12T12:53:36.068Z,36.6
2017-06-12T12:54:54.805Z,36.6
2017-06-12T12:56:13.492Z,36.6
2017-06-12T12:57:32.206Z,36.7
2017-06-12T12:58:50.929Z,36.6
2017-06-12T13:00:09.607Z,36.6
2017-06-12T13:01:28.269Z,36.6
2017-06-12T13:02:46.946Z,36.5
2017-06-12T13:04:05.612Z,36.4
2017-06-12T13:05:24.356Z,36.5
2017-06-12T13:06:43.027Z,36.7
2017-06-12T13:08:01.728Z,36.9
2017-06-12T13:09:20.402Z,36.7
2017-06-12T13:10:39.105Z,36.7
2017-06-12T13:11:57.769Z,36.8
2017-06-12T13:13:16.463Z,36.9
2017-06-12T13:14:35.161Z,37
2017-06-12T13:15:53.911Z,37
2017-06-12T13:17:12.574Z,36.8
2017-06-12T13:18:31.300Z,36.7
2017-06-12T13:19:49.970Z,36.5
2017-06-12T13:21:08.646Z,36.5
2017-06-12T13:22:27.377Z,36.4
2017-06-12T13:23:46.051Z,36.6
2017-06-12T13:25:04.728Z,36.5
2017-06-12T13:26:23.431Z,36.4
2017-06-12T13:27:42.097Z,36.4
2017-06-12T13:29:00.762Z,36.2
2017-06-12T13:30:19.453Z,36.3
2017-06-12T13:31:38.177Z,36.4
2017-06-12T13:32:56.860Z,36.6
2017-06-12T13:34:15.568Z,36.5
2017-06-12T13:35:34.237Z,36.5
2017-06-12T13:36:52.928Z,36.5
2017-06-12T13:38:11.599Z,36.4
2017-06-12T13:39:30.328Z,36.4
2017-06-12T13:40:49.050Z,36.4
2017-06-12T13:42:07.773Z,36.3
2017-06-12T13:43:26.441Z,36.3
2017-06-12T13:44:45.111Z,36.3
2017-06-12T13:46:03.819Z,36.3
2017-06-12T13:47:22.513Z,36.3
2017-06-12T13:48:41.228Z,36.5
2017-06-12T13:49:59.894Z,36.5
2017-06-12T13:51:18.582Z,36.5
2017-06-12T13:52:37.315Z,36.6
2017-06-12T13:53:55.985Z,36.8
2017-06-12T13:55:14.689Z,37
2017-06-12T13:56:33.376Z,36.9
2017-06-12T13:57:52.100Z,36.8
2017-06-12T13:59:10.780Z,36.7
2017-06-12T14:00:29.451Z,36.6
2017-06-12T14:01:48.183Z,36.7
2017-06-12T14:03:06.877Z,36.9
2017-06-12T14:04:25.569Z,36.9
2017-06-12T14:05:44.257Z,37
2017-06-12T14:07:02.926Z,37
2017-06-12T14:08:21.615Z,37
2017-06-12T14:09:40.336Z,37
2017-06-12T14:10:59.076Z,37
2017-06-12T14:12:17.768Z,36.9
2017-06-12T14:13:36.467Z,36.8
2017-06-12T14:14:55.185Z,36.9
2017-06-12T14:16:13.940Z,36.7
2017-06-12T14:17:32.643Z,36.7
2017-06-12T14:18:51.339Z,36.8
2017-06-12T14:20:10.012Z,36.8
2017-06-12T14:21:28.741Z,36.8
2017-06-12T14:22:47.451Z,36.9
2017-06-12T14:24:06.150Z,37
2017-06-12T14:25:24.816Z,37
2017-06-12T14:26:43.480Z,36.9
2017-06-12T14:28:02.142Z,36.8
2017-06-12T14:29:20.817Z,36.7
2017-06-12T14:30:39.536Z,36.5
2017-06-12T14:31:58.267Z,36.3
2017-06-12T14:33:16.978Z,36
2017-06-12T14:34:35.675Z,36
2017-06-12T14:35:54.347Z,35.8
2017-06-12T14:37:13.015Z,35.4
2017-06-12T14:38:31.686Z,35
2017-06-12T14:39:50.372Z,34.7
2017-06-12T14:41:09.077Z,34.4
2017-06-12T14:42:27.778Z,34.1
2017-06-12T14:43:46.496Z,32.8
2017-06-12T14:45:05.194Z,31.6
2017-06-12T14:46:23.891Z,30.5
2017-06-12T14:47:42.563Z,30.4
2017-06-12T14:49:01.242Z,30.3
2017-06-12T14:50:19.946Z,29.6
2017-06-12T14:51:38.608Z,28.6
2017-06-12T14:52:57.303Z,28
2017-06-12T14:54:15.994Z,27.5
2017-06-12T14:55:34.670Z,27.6
2017-06-12T14:56:53.337Z,27.1
2017-06-12T14:58:12.061Z,27.1
2017-06-12T14:59:30.730Z,26.5
2017-06-12T15:00:49.421Z,26.1
2017-06-12T15:02:08.121Z,25.8
2017-06-12T15:03:26.797Z,25.7
2017-06-12T15:04:45.486Z,25.4
2017-06-12T15:06:04.191Z,25
2017-06-12T15:07:22.894Z,24.9
2017-06-12T15:08:41.558Z,24.5
2017-06-12T15:10:00.238Z,24.7
2017-06-12T15:11:18.948Z,24.8
2017-06-12T15:12:37.616Z,25
2017-06-12T15:13:56.338Z,24.8
2017-06-12T15:15:15.057Z,24.8
2017-06-12T15:16:33.728Z,25
2017-06-12T15:17:52.472Z,24.9
2017-06-12T15:19:11.197Z,24.7
2017-06-12T15:20:29.894Z,24.2
2017-06-12T15:21:48.612Z,23.9
2017-06-12T15:23:07.332Z,23.7
2017-06-12T15:24:26.004Z,23.4
2017-06-12T15:25:44.673Z,23.4
2017-06-12T15:27:03.356Z,23.4
2017-06-12T15:28:22.080Z,23.3
2017-06-12T15:29:40.747Z,23.2
2017-06-12T15:30:59.468Z,23.2
2017-06-12T15:32:18.155Z,23.2
2017-06-12T15:33:36.824Z,23.4
2017-06-12T15:34:55.493Z,23.3
2017-06-12T15:36:14.196Z,23.6
2017-06-12T15:37:32.910Z,24.3
2017-06-12T15:38:51.637Z,24.6
2017-06-12T15:40:10.325Z,24.1
2017-06-12T15:41:29.029Z,23.7
2017-06-12T15:42:47.703Z,23.5
2017-06-12T15:44:06.427Z,23.6
2017-06-12T15:45:25.096Z,24.5
2017-06-12T15:46:43.767Z,25.7
2017-06-12T15:48:02.455Z,26.6
2017-06-12T15:49:21.138Z,25.7
2017-06-12T15:50:39.835Z,24.9
2017-06-12T15:51:58.581Z,24.2
2017-06-12T15:53:17.309Z,23.9
2017-06-12T15:54:35.998Z,24.5
2017-06-12T15:55:54.676Z,25.1
2017-06-12T15:57:13.349Z,28.7
2017-06-12T15:58:32.018Z,34.3
2017-06-12T15:59:50.703Z,34.8
2017-06-12T16:01:09.392Z,35.1
2017-06-12T16:02:28.063Z,35.2
2017-06-12T16:03:46.729Z,35.3
2017-06-12T16:05:05.416Z,35.3
2017-06-12T16:06:24.106Z,35.4
2017-06-12T16:07:42.781Z,35.4
2017-06-12T16:09:01.478Z,35.1
2017-06-12T16:10:20.158Z,34.7
2017-06-12T16:11:38.875Z,35
2017-06-12T16:12:57.599Z,35.3
2017-06-12T16:14:16.284Z,35.2
2017-06-12T16:15:34.959Z,35.3
2017-06-12T16:16:53.624Z,35.3
2017-06-12T16:18:12.347Z,35.3
2017-06-12T16:19:31.014Z,35.4
2017-06-12T16:20:49.711Z,35.5
2017-06-12T16:22:08.373Z,35.7
2017-06-12T16:23:27.059Z,35.7
2017-06-12T16:24:45.732Z,35.6
2017-06-12T16:26:04.424Z,35.6
2017-06-12T16:27:23.131Z,35.5
2017-06-12T16:28:41.795Z,35.4
2017-06-12T16:30:00.466Z,35
2017-06-12T16:31:19.156Z,34.9
2017-06-12T16:32:37.821Z,35
2017-06-12T16:33:56.484Z,35.2
2017-06-12T16:35:15.171Z,35.2
2017-06-12T16:36:33.890Z,35.2
2017-06-12T16:37:52.611Z,35.2
2017-06-12T16:39:11.292Z,35.2
2017-06-12T16:40:29.963Z,35.3
2017-06-12T16:41:48.649Z,35.4
2017-06-12T16:43:07.395Z,35.3
2017-06-12T16:44:26.062Z,35.3
2017-06-12T16:45:44.739Z,35.2
2017-06-12T16:47:03.431Z,35.1
2017-06-12T16:48:22.104Z,34.8
2017-06-12T16:49:40.778Z,34.9
2017-06-12T16:50:59.445Z,35
2017-06-12T16:52:18.166Z,34.9
2017-06-12T16:53:36.834Z,34.8
2017-06-12T16:54:55.558Z,34.6
2017-06-12T16:56:14.268Z,34.5
2017-06-12T16:57:32.954Z,34.5
2017-06-12T16:58:51.620Z,34.5
2017-06-12T17:00:10.329Z,34.5
2017-06-12T17:01:29.049Z,34.4
2017-06-12T17:02:47.731Z,34.6
2017-06-12T17:04:06.400Z,34.8
2017-06-12T17:05:25.074Z,35
2017-06-12T17:06:43.774Z,35.1
2017-06-12T17:08:02.465Z,35.2
2017-06-12T17:09:21.135Z,35.1
2017-06-12T17:10:39.810Z,34.9
2017-06-12T17:11:58.476Z,34.8
2017-06-12T17:13:17.168Z,34.8
2017-06-12T17:14:35.836Z,34.6
2017-06-12T17:15:54.559Z,34.7
2017-06-12T17:17:13.276Z,34.9
2017-06-12T17:18:31.963Z,35
2017-06-12T17:19:50.650Z,35.1
2017-06-12T17:21:09.354Z,35.1
2017-06-12T17:22:28.060Z,35.2
2017-06-12T17:23:46.772Z,35.1
2017-06-12T17:25:05.443Z,35
2017-06-12T17:26:24.154Z,35
2017-06-12T17:27:42.826Z,35
2017-06-12T17:29:01.512Z,34.7
2017-06-12T17:30:20.179Z,34.9
2017-06-12T17:31:38.867Z,34.9
2017-06-12T17:32:57.560Z,34.5
2017-06-12T17:34:16.290Z,33.4
2017-06-12T17:35:34.966Z,31.1